Terminal Aerodrome Forecast
Issued by NWS Sioux Falls, SD

Home | Current Version | Previous Version | Text Only | Print | Product List | Glossary On
Versions: 1 2 3 4 5 6 7 8 9 10 11 12 13 14 15 16 17
790
FTUS43 KFSD 291726
TAFHON
TAF
KHON 291726Z 2918/3018 31009KT P6SM SKC
     FM300000 29005KT P6SM FEW150
     FM300300 14006KT P6SM SCT140
     FM300800 14010KT P6SM BKN110
      TEMPO 3008/3011 P6SM -TSRA BKN080CB
     FM301500 15013G18KT P6SM BKN150=

USA.gov is the U.S. government's official web portal to all federal, state and local government web resources and services.